Time;durP1;ratioP1;P1;durP2;ratioP2;P2;SDS_P1;SDS_P2;PMS_P1;PMS_P2;Temp;Humidity;BMP_temperature;BMP_pressure;BME280_temperature;BME280_humidity;BME280_pressure;Samples;Min_cycle;Max_cycle;Signal;HPM_P1;HPM_P2
2023/03/10 00:02:37;;;;;;;12.07;9.15;;;14.50;83.30;;;;;;11008501;32;20010;-73
2023/03/10 00:08:40;;;;;;;14.18;10.88;;;14.50;83.00;;;;;;11022590;32;20045;-73
2023/03/10 00:14:42;;;;;;;13.65;11.07;;;14.40;82.90;;;;;;11021749;32;20324;-73
2023/03/10 00:20:44;;;;;;;15.65;11.00;;;14.40;82.90;;;;;;11021724;26;20337;-73
2023/03/10 00:26:48;;;;;;;19.10;14.73;;;14.40;83.50;;;;;;10983707;32;20030;-73
2023/03/10 00:32:50;;;;;;;24.50;13.13;;;14.40;83.00;;;;;;10982844;32;20053;-73
2023/03/10 00:38:54;;;;;;;15.90;11.57;;;14.40;82.70;;;;;;10983446;32;20445;-73
2023/03/10 00:44:56;;;;;;;19.52;13.95;;;14.20;82.70;;;;;;10982317;32;20022;-73
2023/03/10 00:50:58;;;;;;;16.73;10.95;;;14.20;82.60;;;;;;10968882;32;20068;-73
2023/03/10 00:57:01;;;;;;;16.95;10.38;;;14.20;82.50;;;;;;10981373;32;20019;-73
2023/03/10 01:03:03;;;;;;;13.07;8.75;;;14.00;82.60;;;;;;10980884;32;20060;-73
2023/03/10 01:09:05;;;;;;;11.95;7.82;;;13.90;82.80;;;;;;10981562;32;20014;-73
2023/03/10 01:15:07;;;;;;;12.68;10.80;;;14.00;82.80;;;;;;10966428;32;20061;-74
2023/03/10 01:21:16;;;;;;;10.70;9.25;;;14.00;82.70;;;;;;10981445;32;20027;-73
2023/03/10 01:27:19;;;;;;;18.45;14.70;;;13.90;82.70;;;;;;10980362;32;20219;-73
2023/03/10 01:33:20;;;;;;;12.93;8.38;;;13.90;82.50;;;;;;10980085;32;20033;-73
2023/03/10 01:39:22;;;;;;;10.98;8.95;;;13.90;82.30;;;;;;10978734;32;20023;-73
2023/03/10 01:45:24;;;;;;;9.52;7.22;;;13.80;82.40;;;;;;10965857;32;20059;-73
2023/03/10 01:51:29;;;;;;;11.48;7.82;;;13.80;82.40;;;;;;10964619;32;20053;-73
2023/03/10 01:57:36;;;;;;;7.85;6.12;;;13.80;82.40;;;;;;10979597;32;20037;-73
2023/03/10 02:03:48;;;;;;;11.60;8.77;;;13.70;82.30;;;;;;10979385;32;20069;-71
2023/03/10 02:09:53;;;;;;;14.35;10.82;;;13.60;82.40;;;;;;10965512;32;20344;-71
2023/03/10 02:15:55;;;;;;;10.02;6.85;;;13.40;82.70;;;;;;10973035;32;20038;-71
2023/03/10 02:22:09;;;;;;;8.68;5.95;;;13.50;82.90;;;;;;10974297;32;20065;-73
2023/03/10 02:28:11;;;;;;;19.62;10.93;;;13.50;82.80;;;;;;10985964;32;20043;-73
2023/03/10 02:34:24;;;;;;;12.98;9.35;;;13.60;82.80;;;;;;10986658;32;20049;-73
2023/03/10 02:40:32;;;;;;;10.35;7.60;;;13.60;83.00;;;;;;10987055;32;20309;-73
2023/03/10 02:46:35;;;;;;;14.40;11.23;;;13.30;82.80;;;;;;10985414;32;20057;-73
2023/03/10 02:52:54;;;;;;;8.70;6.40;;;13.40;83.30;;;;;;10959611;32;20057;-73
2023/03/10 02:58:58;;;;;;;11.32;6.53;;;13.50;83.60;;;;;;10983567;32;20031;-73
2023/03/10 03:05:00;;;;;;;15.63;10.05;;;13.30;83.50;;;;;;10971732;32;20043;-73
2023/03/10 03:11:04;;;;;;;7.65;5.22;;;13.40;83.90;;;;;;10985874;32;20043;-73
2023/03/10 03:17:06;;;;;;;9.80;7.82;;;13.50;83.70;;;;;;10971186;32;20077;-73
2023/03/10 03:23:09;;;;;;;8.13;5.30;;;13.50;83.70;;;;;;10971465;32;20022;-73
2023/03/10 03:29:12;;;;;;;7.15;4.70;;;13.30;83.70;;;;;;10984712;32;20026;-74
2023/03/10 03:35:19;;;;;;;13.88;9.20;;;13.20;84.00;;;;;;10984531;32;20018;-74
2023/03/10 03:41:21;;;;;;;16.80;11.68;;;13.20;84.20;;;;;;10984729;32;20061;-73
2023/03/10 03:47:23;;;;;;;8.93;5.47;;;13.30;84.30;;;;;;10969979;32;20031;-73
2023/03/10 03:53:25;;;;;;;7.65;4.82;;;13.30;84.70;;;;;;10983782;32;20023;-74
2023/03/10 03:59:28;;;;;;;14.27;12.10;;;13.20;84.50;;;;;;10983592;32;20306;-74
2023/03/10 04:05:31;;;;;;;7.35;5.35;;;13.20;84.80;;;;;;10983428;32;20061;-74
2023/03/10 04:11:33;;;;;;;9.38;6.93;;;13.30;84.50;;;;;;10983181;32;20023;-74
2023/03/10 04:17:35;;;;;;;14.35;6.50;;;13.20;84.50;;;;;;10981177;32;20210;-74
2023/03/10 04:23:40;;;;;;;12.35;9.18;;;13.30;84.60;;;;;;10966867;32;20049;-74
2023/03/10 04:29:43;;;;;;;10.20;6.97;;;13.40;84.30;;;;;;10983735;32;20022;-74
2023/03/10 04:35:50;;;;;;;11.90;9.25;;;13.50;84.10;;;;;;10968308;32;20042;-75
2023/03/10 04:41:52;;;;;;;7.78;6.03;;;13.60;84.10;;;;;;10980786;32;20057;-74
2023/03/10 04:47:54;;;;;;;10.73;8.45;;;13.70;84.10;;;;;;10981752;32;20014;-74
2023/03/10 04:53:59;;;;;;;10.65;7.68;;;13.70;84.10;;;;;;10982161;32;20023;-74
2023/03/10 05:00:06;;;;;;;11.43;9.55;;;13.80;84.30;;;;;;10981359;32;20298;-74
2023/03/10 05:06:17;;;;;;;8.93;6.40;;;13.80;84.60;;;;;;10977064;32;20058;-74
2023/03/10 05:12:20;;;;;;;10.10;7.40;;;13.70;85.00;;;;;;10965182;32;20061;-73
2023/03/10 05:18:22;;;;;;;13.25;9.88;;;13.60;84.60;;;;;;10980857;32;20144;-74
2023/03/10 05:24:27;;;;;;;10.88;7.55;;;13.50;85.10;;;;;;10980446;32;20061;-74
2023/03/10 05:30:29;;;;;;;10.30;7.32;;;13.70;84.70;;;;;;10980923;32;20055;-74
2023/03/10 05:36:32;;;;;;;9.52;7.07;;;13.90;84.20;;;;;;10980162;32;20015;-74
2023/03/10 05:42:35;;;;;;;12.75;9.90;;;14.20;84.00;;;;;;10962264;32;20043;-74
2023/03/10 05:48:37;;;;;;;10.35;7.28;;;14.00;83.90;;;;;;10966437;32;20019;-74
2023/03/10 05:54:39;;;;;;;10.00;7.55;;;14.10;84.10;;;;;;10980454;32;20067;-74
2023/03/10 06:00:41;;;;;;;11.82;8.57;;;14.10;83.90;;;;;;10965749;32;20034;-74
2023/03/10 06:06:44;;;;;;;12.70;10.40;;;14.20;83.80;;;;;;10977443;32;20337;-74
2023/03/10 06:12:46;;;;;;;13.82;9.10;;;14.30;83.60;;;;;;10976031;32;20345;-74
2023/03/10 06:18:53;;;;;;;11.90;9.93;;;14.40;83.40;;;;;;10979261;32;20050;-73
2023/03/10 06:24:55;;;;;;;10.88;8.55;;;14.40;83.30;;;;;;10977465;32;20041;-74
2023/03/10 06:31:02;;;;;;;12.18;10.90;;;14.50;83.20;;;;;;10979679;32;20332;-73
2023/03/10 06:37:05;;;;;;;16.40;11.15;;;14.40;83.40;;;;;;10964712;32;20023;-73
2023/03/10 06:43:07;;;;;;;18.42;10.75;;;14.60;83.30;;;;;;10964576;32;20034;-73
2023/03/10 06:49:09;;;;;;;12.68;10.20;;;14.70;83.10;;;;;;10978654;32;20046;-73
2023/03/10 06:55:13;;;;;;;14.00;11.15;;;14.80;83.50;;;;;;10978548;32;20061;-72
2023/03/10 07:01:30;;;;;;;19.25;14.75;;;15.00;83.50;;;;;;10983369;32;20046;-72
2023/03/10 07:07:33;;;;;;;16.05;10.68;;;15.00;83.40;;;;;;10956450;32;20053;-72
2023/03/10 07:13:35;;;;;;;19.02;11.05;;;15.10;83.40;;;;;;10944231;32;20068;-72
2023/03/10 07:19:37;;;;;;;13.85;9.13;;;15.00;83.30;;;;;;11012845;32;20034;-72
2023/03/10 07:25:40;;;;;;;9.77;7.62;;;14.80;83.30;;;;;;11022652;32;20351;-72
2023/03/10 07:31:43;;;;;;;17.17;10.18;;;14.80;83.90;;;;;;11004342;32;20057;-72
2023/03/10 07:37:46;;;;;;;14.38;12.07;;;15.00;84.00;;;;;;11009241;32;20400;-72
2023/03/10 07:43:51;;;;;;;16.70;10.98;;;15.00;83.80;;;;;;11018591;32;20328;-72
2023/03/10 07:49:53;;;;;;;11.18;6.60;;;15.10;84.00;;;;;;11021687;32;20022;-72
2023/03/10 07:55:56;;;;;;;18.95;13.00;;;15.10;84.00;;;;;;11006422;32;20057;-72
2023/03/10 08:01:59;;;;;;;13.73;10.25;;;15.30;84.40;;;;;;11021382;32;20076;-72
2023/03/10 08:08:01;;;;;;;14.05;8.63;;;15.20;84.90;;;;;;11018659;32;20022;-72
2023/03/10 08:14:03;;;;;;;11.02;8.55;;;15.30;84.80;;;;;;11007343;32;20022;-72
2023/03/10 08:20:06;;;;;;;16.83;11.77;;;15.50;84.70;;;;;;10805694;27;7080679;-72
2023/03/10 08:26:13;;;;;;;19.02;13.38;;;15.50;84.70;;;;;;10983340;32;20152;-72
2023/03/10 08:32:15;;;;;;;24.70;14.32;;;15.60;85.70;;;;;;10983286;32;20302;-72
2023/03/10 08:38:17;;;;;;;13.00;8.45;;;15.50;85.90;;;;;;10980641;32;20018;-72
2023/03/10 08:44:19;;;;;;;12.70;8.52;;;15.50;86.40;;;;;;10981553;32;20092;-72
2023/03/10 08:50:21;;;;;;;10.77;7.37;;;15.60;86.80;;;;;;10982589;32;20015;-72
2023/03/10 08:56:25;;;;;;;10.07;6.25;;;15.70;87.20;;;;;;10982001;32;20393;-72
2023/03/10 09:02:28;;;;;;;11.93;6.35;;;15.80;86.60;;;;;;10981348;32;20041;-72
2023/03/10 09:08:30;;;;;;;9.57;5.97;;;15.70;86.70;;;;;;10979413;32;20371;-72
2023/03/10 09:14:32;;;;;;;9.25;5.55;;;15.70;86.80;;;;;;10976929;32;20049;-72
2023/03/10 09:20:35;;;;;;;10.20;7.20;;;15.80;86.90;;;;;;10980695;32;20014;-72
2023/03/10 09:26:37;;;;;;;8.68;6.45;;;15.80;87.20;;;;;;10980806;32;20022;-72
2023/03/10 09:32:41;;;;;;;14.00;7.43;;;15.80;87.20;;;;;;10964281;32;20072;-72
2023/03/10 09:38:43;;;;;;;13.43;6.78;;;15.80;87.50;;;;;;10980023;32;20007;-72
2023/03/10 09:44:54;;;;;;;13.18;9.10;;;15.90;87.30;;;;;;10975855;32;20018;-72
2023/03/10 09:50:58;;;;;;;9.98;6.25;;;15.90;87.10;;;;;;10939594;32;20336;-72
2023/03/10 09:57:03;;;;;;;14.07;10.55;;;15.90;87.20;;;;;;10940237;32;20050;-72
2023/03/10 10:03:18;;;;;;;8.07;5.50;;;16.10;86.90;;;;;;10938697;32;20089;-72
2023/03/10 10:09:42;;;;;;;12.25;8.82;;;16.20;87.10;;;;;;10939899;32;20058;-72
2023/03/10 10:15:55;;;;;;;15.55;7.65;;;16.40;86.60;;;;;;10928927;32;20345;-72
2023/03/10 10:22:09;;;;;;;21.55;12.52;;;16.40;86.70;;;;;;10939969;32;20428;-72
2023/03/10 10:28:48;;;;;;;19.55;7.22;;;16.60;86.80;;;;;;10925042;32;20034;-72
2023/03/10 10:34:50;;;;;;;;;;;16.60;85.60;;;;;;10814944;33;20139;-70
2023/03/10 10:41:15;;;;;;;13.00;8.80;;;16.70;85.20;;;;;;10819235;32;19927;-72
2023/03/10 10:47:33;;;;;;;16.08;11.02;;;16.80;85.30;;;;;;10827483;33;20040;-72
2023/03/10 10:53:38;;;;;;;10.00;6.33;;;16.90;84.90;;;;;;10828444;32;20028;-72
2023/03/10 10:59:41;;;;;;;10.90;6.55;;;17.00;84.50;;;;;;10832365;32;20064;-72
2023/03/10 11:05:43;;;;;;;10.20;5.60;;;17.30;84.40;;;;;;10829164;32;20162;-70
2023/03/10 11:11:52;;;;;;;11.35;7.12;;;17.70;83.20;;;;;;10923995;32;20022;-70
2023/03/10 11:17:57;;;;;;;;;;;17.90;82.50;;;;;;10947260;32;20045;-72
2023/03/10 11:24:19;;;;;;;11.45;7.00;;;18.10;81.70;;;;;;10947363;32;20312;-72
2023/03/10 11:30:33;;;;;;;12.25;6.00;;;18.40;81.50;;;;;;10946649;32;20042;-72
2023/03/10 11:37:13;;;;;;;13.10;8.00;;;18.70;82.40;;;;;;10947045;32;20061;-70
2023/03/10 11:43:54;;;;;;;10.05;6.15;;;19.10;81.20;;;;;;10944413;32;20068;-72
2023/03/10 11:50:12;;;;;;;10.77;4.18;;;19.30;80.80;;;;;;10781456;33;20043;-70
2023/03/10 11:56:18;;;;;;;12.23;5.53;;;19.30;79.00;;;;;;10793085;33;20179;-71
2023/03/10 12:02:41;;;;;;;15.80;7.72;;;19.50;78.40;;;;;;10791794;33;20351;-70
2023/03/10 12:08:43;;;;;;;11.98;6.07;;;19.70;79.40;;;;;;10790017;33;20036;-70
2023/03/10 12:14:46;;;;;;;7.93;4.93;;;19.50;77.80;;;;;;10789647;33;20056;-72
2023/03/10 12:21:13;;;;;;;5.87;3.62;;;19.60;77.70;;;;;;10948079;32;20064;-71
2023/03/10 12:27:16;;;;;;;12.50;6.72;;;19.90;77.00;;;;;;10983127;32;20309;-72
2023/03/10 12:33:30;;;;;;;9.93;4.43;;;19.90;77.10;;;;;;10980252;32;20037;-70
2023/03/10 12:39:42;;;;;;;16.20;5.25;;;20.00;76.20;;;;;;10980142;32;20439;-72
2023/03/10 12:45:45;;;;;;;11.43;4.65;;;19.70;75.40;;;;;;10970156;32;20048;-70
2023/03/10 12:51:58;;;;;;;10.45;5.40;;;19.50;73.40;;;;;;10978779;32;20122;-71
2023/03/10 12:58:14;;;;;;;14.75;5.15;;;19.70;72.60;;;;;;10980933;32;20019;-71
2023/03/10 13:04:20;;;;;;;9.55;4.50;;;19.90;73.40;;;;;;10964262;32;20057;-71
2023/03/10 13:10:25;;;;;;;11.10;4.65;;;19.80;70.80;;;;;;10967078;32;20427;-70
2023/03/10 13:16:27;;;;;;;4.93;2.85;;;19.80;69.70;;;;;;10982001;32;20049;-71
2023/03/10 13:22:29;;;;;;;6.72;4.25;;;19.80;69.50;;;;;;10980895;32;20333;-71
2023/03/10 13:28:33;;;;;;;15.20;7.55;;;19.90;69.50;;;;;;10978577;32;20062;-70
2023/03/10 13:34:35;;;;;;;8.25;3.65;;;19.90;69.10;;;;;;10980993;32;20415;-70
2023/03/10 13:40:46;;;;;;;6.47;3.58;;;19.90;68.90;;;;;;10949515;32;20026;-70
2023/03/10 13:46:59;;;;;;;6.15;4.05;;;19.90;67.20;;;;;;10979771;32;20022;-70
2023/03/10 13:53:03;;;;;;;11.12;4.03;;;19.90;67.50;;;;;;10980585;32;20053;-70
2023/03/10 13:59:12;;;;;;;9.57;5.55;;;20.20;69.20;;;;;;10966708;32;20397;-71
2023/03/10 14:05:44;;;;;;;6.80;3.60;;;20.30;68.20;;;;;;10965395;32;20105;-71
2023/03/10 14:11:48;;;;;;;7.70;3.97;;;20.30;64.90;;;;;;10967412;32;20043;-71
2023/03/10 14:18:07;;;;;;;13.82;7.00;;;20.20;64.30;;;;;;10979136;32;20018;-71
2023/03/10 14:24:13;;;;;;;25.50;5.03;;;20.00;63.40;;;;;;10974944;32;20022;-71
2023/03/10 14:30:31;;;;;;;12.27;4.75;;;20.10;63.00;;;;;;10955080;32;20027;-72
2023/03/10 14:36:33;;;;;;;9.38;4.65;;;20.10;62.60;;;;;;10943115;32;20019;-73
2023/03/10 14:42:36;;;;;;;14.43;5.12;;;20.30;61.00;;;;;;10937180;32;20031;-72
2023/03/10 14:48:40;;;;;;;14.40;6.32;;;20.30;60.60;;;;;;10936844;32;20349;-74
2023/03/10 14:54:43;;;;;;;8.48;5.30;;;20.30;61.50;;;;;;10927310;32;20015;-73
2023/03/10 15:00:45;;;;;;;13.07;7.93;;;20.40;61.00;;;;;;10924575;32;20038;-72
2023/03/10 15:06:47;;;;;;;16.05;8.07;;;20.60;60.10;;;;;;10942238;32;20054;-72
2023/03/10 15:12:51;;;;;;;14.20;8.38;;;20.70;59.80;;;;;;10940567;32;20203;-73
2023/03/10 15:18:53;;;;;;;9.70;6.00;;;20.80;58.50;;;;;;10969769;32;20030;-73
2023/03/10 15:24:55;;;;;;;8.77;6.18;;;20.80;59.10;;;;;;11021770;32;20375;-73
2023/03/10 15:30:57;;;;;;;15.70;9.57;;;21.10;59.60;;;;;;11021854;32;20434;-72
2023/03/10 15:37:00;;;;;;;10.13;7.22;;;20.90;60.60;;;;;;11008619;32;20409;-73
2023/03/10 15:43:02;;;;;;;11.98;7.35;;;20.40;60.00;;;;;;11023736;32;20316;-72
2023/03/10 15:49:04;;;;;;;11.93;9.55;;;20.20;59.50;;;;;;11019214;32;20018;-73
2023/03/10 15:55:06;;;;;;;9.63;5.22;;;20.50;58.20;;;;;;11009620;32;20018;-74
2023/03/10 16:01:10;;;;;;;10.07;7.37;;;21.00;57.60;;;;;;11021830;32;20045;-72
2023/03/10 16:07:12;;;;;;;16.42;7.65;;;21.30;57.80;;;;;;11021998;32;20026;-72
2023/03/10 16:13:14;;;;;;;10.93;6.78;;;21.60;55.90;;;;;;11018858;32;20022;-72
2023/03/10 16:19:16;;;;;;;14.13;6.50;;;21.80;55.80;;;;;;11007353;32;20405;-72
2023/03/10 16:25:20;;;;;;;7.10;4.95;;;21.70;56.10;;;;;;10988559;27;20022;-72
2023/03/10 16:31:25;;;;;;;7.87;4.15;;;20.80;57.30;;;;;;11047223;26;20434;-71
2023/03/10 16:37:28;;;;;;;14.10;6.72;;;20.80;58.40;;;;;;10982409;32;20014;-73
2023/03/10 16:43:31;;;;;;;11.40;6.37;;;21.00;59.30;;;;;;10981156;32;20343;-72
2023/03/10 16:49:35;;;;;;;9.55;5.57;;;21.00;58.40;;;;;;10964996;32;20030;-72
2023/03/10 16:55:37;;;;;;;10.63;5.05;;;20.50;59.10;;;;;;10982224;32;20087;-73
2023/03/10 17:01:39;;;;;;;13.15;9.15;;;19.90;57.90;;;;;;10982724;32;20038;-73
2023/03/10 17:07:42;;;;;;;15.43;6.82;;;19.30;59.10;;;;;;10979651;32;20193;-73
2023/03/10 17:13:46;;;;;;;13.77;7.90;;;19.00;59.40;;;;;;10954717;32;20053;-73
2023/03/10 17:19:59;;;;;;;9.73;5.47;;;18.70;59.30;;;;;;10981450;32;20015;-73
2023/03/10 17:26:01;;;;;;;12.05;8.10;;;18.50;59.40;;;;;;10967577;32;20056;-73
2023/03/10 17:32:03;;;;;;;15.75;7.68;;;18.40;59.90;;;;;;10980778;32;20019;-73
2023/03/10 17:38:05;;;;;;;6.28;4.65;;;18.30;61.00;;;;;;10980465;32;20351;-73
2023/03/10 17:44:08;;;;;;;5.85;3.45;;;18.30;61.80;;;;;;10967678;32;20372;-73
2023/03/10 17:50:10;;;;;;;7.25;4.75;;;18.20;63.00;;;;;;10980600;32;20092;-73
2023/03/10 17:56:13;;;;;;;9.88;5.62;;;18.20;63.60;;;;;;10979193;32;20054;-73
2023/03/10 18:02:15;;;;;;;10.15;4.60;;;18.10;64.20;;;;;;10975521;32;20053;-73
2023/03/10 18:08:17;;;;;;;6.50;3.92;;;18.00;65.10;;;;;;10979359;32;20011;-73
2023/03/10 18:14:19;;;;;;;7.70;4.62;;;17.90;65.70;;;;;;10978114;32;20035;-73
2023/03/10 18:20:22;;;;;;;5.70;3.80;;;17.80;66.30;;;;;;10979252;32;20407;-73
2023/03/10 18:26:32;;;;;;;7.68;5.12;;;17.80;66.60;;;;;;10979758;32;20046;-73
2023/03/10 18:32:34;;;;;;;6.70;5.20;;;17.70;67.40;;;;;;10979381;32;20343;-71
2023/03/10 18:38:36;;;;;;;7.72;5.37;;;17.60;67.50;;;;;;10977253;32;20400;-71
2023/03/10 18:44:38;;;;;;;9.63;5.93;;;17.50;67.70;;;;;;10980148;32;20019;-71
2023/03/10 18:50:40;;;;;;;6.72;5.00;;;17.50;68.00;;;;;;10979084;32;20045;-70
2023/03/10 18:56:43;;;;;;;21.12;12.60;;;17.50;68.80;;;;;;10984182;32;20046;-71
2023/03/10 19:02:45;;;;;;;20.05;11.07;;;17.30;68.60;;;;;;10986177;32;20019;-70
2023/03/10 19:08:47;;;;;;;13.75;8.73;;;17.30;68.90;;;;;;10982386;32;20019;-70
2023/03/10 19:14:58;;;;;;;19.48;16.55;;;17.30;68.80;;;;;;10984982;32;20014;-71
2023/03/10 19:21:00;;;;;;;18.70;13.07;;;17.20;68.00;;;;;;10985666;32;20010;-70
2023/03/10 19:27:03;;;;;;;26.37;18.30;;;17.10;68.60;;;;;;10970693;32;20066;-71
2023/03/10 19:33:05;;;;;;;22.33;16.08;;;17.10;68.60;;;;;;10984850;32;20014;-71
2023/03/10 19:39:07;;;;;;;25.55;16.40;;;17.00;68.20;;;;;;10983149;32;20027;-70
2023/03/10 19:45:11;;;;;;;24.15;18.35;;;16.90;67.80;;;;;;10985188;32;20014;-70
2023/03/10 19:51:27;;;;;;;18.25;12.88;;;16.80;67.90;;;;;;10983710;32;20341;-70
2023/03/10 19:57:29;;;;;;;14.25;10.30;;;16.80;68.30;;;;;;10984731;32;20038;-70
2023/03/10 20:03:32;;;;;;;11.95;6.90;;;16.80;68.90;;;;;;10982186;32;20408;-70
2023/03/10 20:09:35;;;;;;;19.25;11.68;;;16.80;69.50;;;;;;10983846;32;20011;-70
2023/03/10 20:15:38;;;;;;;11.73;8.98;;;17.00;70.70;;;;;;10983152;32;20023;-70
2023/03/10 20:21:41;;;;;;;16.65;9.30;;;17.10;71.80;;;;;;10983629;32;20364;-70
2023/03/10 20:27:43;;;;;;;13.52;9.25;;;17.30;72.40;;;;;;10979847;32;20058;-71
2023/03/10 20:33:45;;;;;;;11.30;8.48;;;17.30;73.10;;;;;;10981154;32;20029;-70
2023/03/10 20:39:48;;;;;;;12.23;9.30;;;17.40;75.50;;;;;;10983456;32;20011;-70
2023/03/10 20:45:51;;;;;;;14.77;11.30;;;17.50;77.00;;;;;;10980704;32;20370;-73
2023/03/10 20:51:53;;;;;;;19.98;14.77;;;17.60;76.70;;;;;;10982307;32;20328;-73
2023/03/10 20:57:58;;;;;;;16.02;12.88;;;17.60;76.70;;;;;;10978234;32;20414;-73
2023/03/10 21:04:00;;;;;;;14.57;10.70;;;17.30;76.80;;;;;;10981595;32;20285;-73
2023/03/10 21:10:04;;;;;;;13.90;10.45;;;17.30;77.00;;;;;;10981655;32;20431;-73
2023/03/10 21:16:08;;;;;;;23.00;14.75;;;17.30;77.70;;;;;;10976813;32;20030;-73
2023/03/10 21:22:10;;;;;;;19.00;14.90;;;17.20;79.00;;;;;;10981330;32;20014;-73
2023/03/10 21:28:13;;;;;;;13.25;10.95;;;17.10;79.00;;;;;;10977253;32;20065;-74
2023/03/10 21:34:15;;;;;;;12.55;9.50;;;17.10;80.20;;;;;;10976741;32;20323;-73
2023/03/10 21:40:19;;;;;;;13.02;9.65;;;17.10;81.00;;;;;;10976446;32;20046;-73
2023/03/10 21:46:22;;;;;;;12.88;9.93;;;17.00;81.20;;;;;;10978811;32;20038;-73
2023/03/10 21:52:24;;;;;;;12.57;8.88;;;17.00;80.80;;;;;;10981190;32;20340;-73
2023/03/10 21:58:26;;;;;;;13.15;8.82;;;17.00;80.50;;;;;;10980378;32;20014;-74
2023/03/10 22:04:29;;;;;;;9.68;7.40;;;17.00;80.40;;;;;;10979252;32;20023;-73
2023/03/10 22:10:31;;;;;;;8.82;7.43;;;16.80;80.60;;;;;;10980797;32;20014;-73
2023/03/10 22:16:33;;;;;;;11.55;6.60;;;16.70;80.50;;;;;;10979446;32;20054;-74
2023/03/10 22:22:35;;;;;;;9.27;6.45;;;16.70;80.90;;;;;;10977828;32;20319;-74
2023/03/10 22:28:38;;;;;;;10.90;6.68;;;16.70;80.70;;;;;;10979835;32;20031;-73
2023/03/10 22:34:41;;;;;;;10.55;7.80;;;16.50;80.80;;;;;;10984311;32;20037;-73
2023/03/10 22:40:43;;;;;;;11.95;8.30;;;16.30;81.00;;;;;;10984940;32;20065;-73
2023/03/10 22:47:13;;;;;;;10.40;7.65;;;16.30;81.60;;;;;;10984093;32;20022;-73
2023/03/10 22:53:18;;;;;;;9.25;5.93;;;16.40;81.00;;;;;;10984422;32;20019;-73
2023/03/10 22:59:20;;;;;;;8.43;5.75;;;16.40;80.50;;;;;;10983771;32;20037;-73
2023/03/10 23:05:23;;;;;;;8.35;6.43;;;16.30;80.70;;;;;;10983588;32;20010;-74
2023/03/10 23:11:25;;;;;;;11.27;6.30;;;15.90;80.80;;;;;;10984351;32;20033;-73
2023/03/10 23:17:27;;;;;;;13.55;9.68;;;15.50;81.30;;;;;;10983217;32;20042;-73
2023/03/10 23:23:30;;;;;;;7.95;5.72;;;15.30;81.70;;;;;;10982733;32;20038;-73
2023/03/10 23:29:32;;;;;;;8.95;6.37;;;15.40;82.10;;;;;;10760941;32;7217512;-74
2023/03/10 23:35:35;;;;;;;13.40;6.78;;;15.40;81.60;;;;;;10986146;32;20019;-73
2023/03/10 23:41:37;;;;;;;9.63;6.37;;;15.30;81.80;;;;;;10985605;32;20042;-73
2023/03/10 23:47:40;;;;;;;6.78;4.95;;;15.50;81.70;;;;;;10984254;32;20053;-73
2023/03/10 23:53:42;;;;;;;8.43;5.62;;;15.50;82.40;;;;;;10984970;32;20053;-71
2023/03/10 23:59:44;;;;;;;10.43;6.45;;;15.30;82.20;;;;;;10985389;32;20019;-71
